Time;durP1;ratioP1;P1;durP2;ratioP2;P2;SDS_P1;SDS_P2;PMS_P1;PMS_P2;Temp;Humidity;BMP_temperature;BMP_pressure;BME280_temperature;BME280_humidity;BME280_pressure;Samples;Min_cycle;Max_cycle;Signal;HPM_P1;HPM_P2
2024/01/12 00:01:51;;;;;;;2.92;2.58;;;1.70;99.90;;;1.49;100.00;102452.06;6098366;23;20214;-66
2024/01/12 00:04:19;;;;;;;5.40;3.88;;;1.60;99.90;;;1.42;100.00;102453.44;6098389;23;20158;-66
2024/01/12 00:06:49;;;;;;;9.35;6.22;;;1.50;99.90;;;1.36;100.00;102453.84;6121084;23;20266;-66
2024/01/12 00:09:18;;;;;;;7.28;6.65;;;1.40;99.90;;;1.29;100.00;102448.97;6098351;23;20704;-65
2024/01/12 00:11:46;;;;;;;6.57;6.00;;;1.30;99.90;;;1.29;100.00;102462.28;6098221;23;20210;-66
2024/01/12 00:14:15;;;;;;;3.75;3.47;;;1.30;99.90;;;1.30;100.00;102464.00;6097996;23;20159;-67
2024/01/12 00:16:44;;;;;;;2.03;1.80;;;1.30;99.90;;;1.38;100.00;102467.94;6098013;23;20266;-67
2024/01/12 00:19:14;;;;;;;10.02;5.60;;;1.30;99.90;;;1.28;100.00;102470.38;6098281;23;20166;-67
2024/01/12 00:21:44;;;;;;;5.30;4.88;;;1.30;99.90;;;1.35;100.00;102474.38;6098062;23;20163;-68
2024/01/12 00:24:13;;;;;;;9.07;3.85;;;1.30;99.90;;;1.42;100.00;102472.09;6098259;23;20147;-66
2024/01/12 00:26:42;;;;;;;5.82;5.43;;;1.40;99.90;;;1.44;100.00;102472.88;6098420;23;20229;-68
2024/01/12 00:29:11;;;;;;;3.78;3.40;;;1.40;99.90;;;1.34;100.00;102474.44;6098876;23;20187;-66
2024/01/12 00:31:39;;;;;;;4.97;2.20;;;1.30;99.90;;;1.25;100.00;102474.13;6098291;23;20204;-66
2024/01/12 00:34:07;;;;;;;2.22;2.13;;;1.30;99.90;;;1.24;100.00;102476.88;6103104;23;20211;-67
2024/01/12 00:36:37;;;;;;;3.05;2.53;;;1.20;99.90;;;1.16;100.00;102469.38;6111171;23;20183;-67
2024/01/12 00:39:06;;;;;;;5.35;3.20;;;1.20;99.90;;;1.23;100.00;102470.69;6100089;23;20227;-68
2024/01/12 00:41:34;;;;;;;2.30;1.75;;;1.20;99.90;;;1.21;100.00;102469.94;6099418;23;20178;-65
2024/01/12 00:44:04;;;;;;;3.25;2.00;;;1.20;99.90;;;1.11;100.00;102473.34;6098759;23;20210;-67
2024/01/12 00:46:33;;;;;;;2.05;1.95;;;1.20;99.90;;;1.03;100.00;102478.31;6098416;23;20270;-65
2024/01/12 00:49:02;;;;;;;5.28;3.35;;;1.10;99.90;;;1.01;100.00;102481.09;6098602;23;20275;-67
2024/01/12 00:51:30;;;;;;;6.88;4.47;;;1.10;99.90;;;1.08;100.00;102482.38;6097940;23;20152;-66
2024/01/12 00:54:00;;;;;;;5.97;2.00;;;1.10;99.90;;;1.15;100.00;102472.19;6098101;23;20215;-66
2024/01/12 00:56:28;;;;;;;4.47;3.38;;;1.10;99.90;;;1.13;100.00;102480.28;6097796;23;20218;-66
2024/01/12 00:58:57;;;;;;;5.50;2.30;;;1.20;99.90;;;1.15;100.00;102477.50;6097962;23;20513;-67
2024/01/12 01:01:25;;;;;;;4.13;1.88;;;1.10;99.90;;;1.16;100.00;102482.72;6097908;23;20203;-66
2024/01/12 01:03:54;;;;;;;6.03;5.43;;;1.20;99.90;;;1.21;100.00;102477.13;6097986;23;20255;-66
2024/01/12 01:06:22;;;;;;;2.38;2.20;;;1.20;99.90;;;1.19;100.00;102479.88;6097572;23;20183;-67
2024/01/12 01:08:51;;;;;;;5.82;4.40;;;1.20;99.90;;;1.28;100.00;102484.59;6097688;23;20163;-64
2024/01/12 01:11:21;;;;;;;8.32;3.67;;;1.30;99.90;;;1.53;100.00;102481.09;6097837;23;20180;-66
2024/01/12 01:13:50;;;;;;;3.72;3.30;;;1.40;99.90;;;1.57;100.00;102479.06;6098262;23;20218;-67
2024/01/12 01:16:18;;;;;;;6.57;5.90;;;1.50;99.90;;;1.62;100.00;102472.47;6097818;23;20183;-66
2024/01/12 01:18:47;;;;;;;6.82;4.20;;;1.50;99.90;;;1.59;100.00;102477.16;6096958;23;20171;-68
2024/01/12 01:21:16;;;;;;;6.57;3.55;;;1.50;99.90;;;1.51;100.00;102475.00;6097645;23;20156;-67
2024/01/12 01:23:45;;;;;;;11.60;4.90;;;1.50;99.90;;;1.49;100.00;102474.28;6097337;23;20167;-67
2024/01/12 01:26:13;;;;;;;3.45;3.17;;;1.50;99.90;;;1.40;100.00;102482.91;6097401;23;20184;-66
2024/01/12 01:28:43;;;;;;;9.88;8.23;;;1.40;99.90;;;1.31;100.00;102478.16;6096973;23;20164;-66
2024/01/12 01:31:11;;;;;;;6.32;3.20;;;1.40;99.90;;;1.45;100.00;102474.59;6097247;23;20181;-66
2024/01/12 01:33:40;;;;;;;5.00;4.60;;;1.40;99.90;;;1.45;100.00;102470.09;6097521;23;20187;-67
2024/01/12 01:36:09;;;;;;;5.15;4.68;;;1.40;99.90;;;1.35;100.00;102460.16;6096867;23;20644;-66
2024/01/12 01:38:37;;;;;;;3.90;3.20;;;1.40;99.90;;;1.33;100.00;102451.41;6096999;23;20167;-67
2024/01/12 01:41:05;;;;;;;3.78;3.47;;;1.30;99.90;;;1.26;100.00;102454.47;6097184;23;20609;-67
2024/01/12 01:43:35;;;;;;;4.03;3.72;;;1.30;99.90;;;1.24;100.00;102460.88;6097163;23;20629;-66
2024/01/12 01:46:05;;;;;;;4.85;4.40;;;1.30;99.90;;;1.28;100.00;102463.25;6097098;23;20195;-66
2024/01/12 01:48:34;;;;;;;2.75;2.53;;;1.30;99.90;;;1.42;100.00;102464.97;6097280;23;20156;-63
2024/01/12 01:51:04;;;;;;;2.13;1.70;;;1.30;99.90;;;1.51;100.00;102468.81;6119811;23;20180;-67
2024/01/12 01:53:33;;;;;;;3.45;2.90;;;1.40;99.90;;;1.23;100.00;102459.19;6097366;23;20175;-67
2024/01/12 01:56:04;;;;;;;3.55;3.05;;;1.30;99.90;;;1.37;100.00;102455.56;6096812;23;20184;-66
2024/01/12 01:58:34;;;;;;;5.13;3.42;;;1.30;99.90;;;1.38;100.00;102450.13;6097466;23;20287;-67
2024/01/12 02:01:05;;;;;;;5.38;4.22;;;1.40;99.90;;;1.41;100.00;102457.06;6097389;23;20160;-67
2024/01/12 02:03:34;;;;;;;4.07;3.72;;;1.40;99.90;;;1.33;100.00;102438.06;6103911;23;20605;-68
2024/01/12 02:06:04;;;;;;;4.38;3.95;;;1.30;99.90;;;1.34;100.00;102442.44;6098989;23;20195;-67
2024/01/12 02:08:34;;;;;;;6.93;4.03;;;1.30;99.90;;;1.42;100.00;102440.09;6100003;23;20148;-67
2024/01/12 02:11:03;;;;;;;5.50;2.78;;;1.40;99.90;;;1.37;100.00;102445.75;6099457;23;20171;-68
2024/01/12 02:13:32;;;;;;;6.20;4.28;;;1.30;99.90;;;1.23;100.00;102449.38;6099805;23;20171;-66
2024/01/12 02:16:01;;;;;;;5.93;3.97;;;1.30;99.90;;;1.23;100.00;102457.38;6099492;23;20665;-67
2024/01/12 02:18:32;;;;;;;4.50;4.05;;;1.20;99.90;;;1.18;100.00;102451.50;6099170;23;20152;-67
2024/01/12 02:21:02;;;;;;;6.35;4.53;;;1.20;99.90;;;1.18;100.00;102450.63;6101911;23;20466;-65
2024/01/12 02:23:31;;;;;;;4.50;2.10;;;1.10;99.90;;;1.19;100.00;102453.19;6099630;23;20156;-67
2024/01/12 02:26:00;;;;;;;5.40;4.10;;;1.20;99.90;;;1.11;100.00;102458.22;6098894;23;20193;-67
2024/01/12 02:28:28;;;;;;;3.38;3.08;;;1.10;99.90;;;1.17;100.00;102465.78;6100123;23;20243;-66
2024/01/12 02:30:57;;;;;;;5.03;2.53;;;1.10;99.90;;;1.04;100.00;102464.91;6101015;23;20235;-67
2024/01/12 02:33:26;;;;;;;5.43;4.38;;;1.10;99.90;;;1.12;100.00;102465.22;6101174;23;20187;-67
2024/01/12 02:35:57;;;;;;;4.53;3.40;;;1.10;99.90;;;1.18;100.00;102459.50;6100431;23;20246;-66
2024/01/12 02:38:33;;;;;;;2.03;1.92;;;1.10;99.90;;;1.22;100.00;102457.47;6101057;23;20238;-66
2024/01/12 02:41:02;;;;;;;4.15;3.85;;;1.10;99.90;;;1.29;100.00;102459.63;6101879;23;20147;-67
2024/01/12 02:43:31;;;;;;;5.28;4.88;;;1.20;99.90;;;1.16;100.00;102464.06;6100952;23;20167;-68
2024/01/12 02:46:00;;;;;;;4.68;3.67;;;1.20;99.90;;;1.24;100.00;102466.22;6100563;23;20187;-66
2024/01/12 02:48:28;;;;;;;10.48;3.17;;;1.20;99.90;;;1.26;100.00;102461.63;6100365;23;20156;-65
2024/01/12 02:50:57;;;;;;;5.75;3.42;;;1.20;99.90;;;1.29;100.00;102469.44;6100041;23;20179;-67
2024/01/12 02:53:26;;;;;;;3.25;2.95;;;1.20;99.90;;;1.35;100.00;102470.84;6101447;23;20160;-65
2024/01/12 02:55:56;;;;;;;5.68;3.85;;;1.20;99.90;;;1.23;100.00;102480.50;6100869;23;20183;-67
2024/01/12 02:58:25;;;;;;;4.25;2.90;;;1.20;99.90;;;1.28;100.00;102479.25;6099606;23;20227;-66
2024/01/12 03:00:54;;;;;;;11.30;9.55;;;1.20;99.90;;;1.29;100.00;102480.97;6100160;23;20167;-68
2024/01/12 03:03:23;;;;;;;2.85;1.83;;;1.20;99.90;;;1.06;100.00;102473.66;6104413;23;20231;-68
2024/01/12 03:05:52;;;;;;;4.22;2.45;;;1.20;99.90;;;1.09;100.00;102469.91;6099548;23;20194;-67
2024/01/12 03:08:20;;;;;;;4.90;2.55;;;1.10;99.90;;;1.06;100.00;102470.13;6099639;23;20203;-68
2024/01/12 03:10:49;;;;;;;5.45;5.10;;;1.10;99.90;;;1.20;100.00;102464.72;6119707;23;20195;-67
2024/01/12 03:13:19;;;;;;;5.03;2.45;;;1.20;99.90;;;1.24;100.00;102467.09;6097228;23;20168;-67
2024/01/12 03:15:48;;;;;;;4.55;4.25;;;1.20;99.90;;;1.09;100.00;102465.44;6097035;23;20270;-66
2024/01/12 03:18:16;;;;;;;7.68;4.10;;;1.10;99.90;;;1.09;100.00;102465.44;6096995;23;20190;-67
2024/01/12 03:20:45;;;;;;;5.15;4.88;;;1.10;99.90;;;1.08;100.00;102461.06;6096701;23;20168;-66
2024/01/12 03:23:14;;;;;;;2.83;1.73;;;1.10;99.90;;;0.94;100.00;102458.47;6095492;23;20168;-67
2024/01/12 03:25:43;;;;;;;1.65;1.52;;;1.00;99.90;;;0.98;100.00;102461.78;6096548;23;20187;-66
2024/01/12 03:28:11;;;;;;;2.67;2.45;;;1.00;99.90;;;0.99;100.00;102456.34;6097148;23;20238;-67
2024/01/12 03:30:41;;;;;;;2.80;2.60;;;1.00;99.90;;;0.94;100.00;102447.81;6096456;23;20179;-66
2024/01/12 03:33:10;;;;;;;2.85;2.63;;;0.90;99.90;;;0.96;100.00;102440.56;6098988;23;20155;-66
2024/01/12 03:35:40;;;;;;;8.27;5.03;;;0.90;99.90;;;1.07;100.00;102439.81;6099407;23;20242;-67
2024/01/12 03:38:11;;;;;;;4.32;4.03;;;1.00;99.90;;;0.98;100.00;102433.31;6099121;23;20160;-66
2024/01/12 03:40:40;;;;;;;4.38;3.95;;;1.00;99.90;;;1.06;100.00;102422.16;6098789;23;20632;-66
2024/01/12 03:43:08;;;;;;;7.80;5.53;;;1.00;99.90;;;1.15;100.00;102409.03;6097555;23;20652;-65
2024/01/12 03:45:37;;;;;;;6.25;4.50;;;1.10;99.90;;;1.25;100.00;102396.78;6097238;23;20255;-66
2024/01/12 03:48:08;;;;;;;5.10;3.72;;;1.20;99.90;;;1.10;100.00;102399.63;6097365;23;20179;-67
2024/01/12 03:50:37;;;;;;;12.57;3.35;;;1.20;99.90;;;0.98;100.00;102398.66;6097940;23;20175;-66
2024/01/12 03:53:06;;;;;;;5.15;4.38;;;1.10;99.90;;;0.96;100.00;102399.72;6097655;23;20168;-66
2024/01/12 03:55:34;;;;;;;2.45;1.80;;;1.00;99.90;;;0.94;100.00;102397.16;6098408;23;20578;-66
2024/01/12 03:58:04;;;;;;;2.60;2.40;;;1.00;99.90;;;1.04;100.00;102398.25;6097587;23;20175;-67
2024/01/12 04:00:32;;;;;;;3.30;3.05;;;1.00;99.90;;;0.98;100.00;102403.97;6096947;23;20178;-67
2024/01/12 04:03:01;;;;;;;2.35;1.08;;;1.00;99.90;;;0.82;100.00;102395.34;6097131;23;20306;-67
2024/01/12 04:05:31;;;;;;;3.08;2.75;;;0.90;99.90;;;0.77;100.00;102382.31;6097179;23;20218;-67
2024/01/12 04:08:00;;;;;;;2.55;1.63;;;0.90;99.90;;;0.73;100.00;102380.78;6099285;23;20156;-66
2024/01/12 04:10:29;;;;;;;1.98;1.77;;;0.80;99.90;;;0.77;100.00;102389.44;6097918;23;20163;-67
2024/01/12 04:12:57;;;;;;;6.45;3.75;;;0.80;99.90;;;0.74;100.00;102386.97;6096986;23;20223;-65
2024/01/12 04:15:26;;;;;;;2.88;1.35;;;0.80;99.90;;;0.73;100.00;102390.59;6096862;23;20194;-66
2024/01/12 04:17:54;;;;;;;2.50;2.40;;;0.80;99.90;;;0.72;100.00;102391.56;6097631;23;20159;-67
2024/01/12 04:20:23;;;;;;;5.60;5.10;;;0.70;99.90;;;0.89;100.00;102396.59;6096634;23;20152;-65
2024/01/12 04:22:54;;;;;;;11.15;2.83;;;0.80;99.90;;;1.08;100.00;102397.06;6096825;23;20187;-66
2024/01/12 04:25:22;;;;;;;6.07;4.97;;;1.00;99.90;;;1.18;100.00;102391.97;6096413;23;20207;-67
2024/01/12 04:27:51;;;;;;;7.10;4.75;;;1.10;99.90;;;1.10;100.00;102391.66;6096387;23;20168;-66
2024/01/12 04:30:19;;;;;;;4.20;2.40;;;1.10;99.90;;;1.10;100.00;102389.84;6096133;23;20472;-66
2024/01/12 04:32:49;;;;;;;5.10;2.75;;;1.10;99.90;;;1.12;100.00;102387.91;6096171;23;20223;-65
2024/01/12 04:35:18;;;;;;;2.97;2.80;;;1.10;99.90;;;1.04;100.00;102402.72;6096194;23;20168;-67
2024/01/12 04:37:47;;;;;;;3.60;2.47;;;1.10;99.90;;;0.78;100.00;102393.81;6096650;23;20156;-66
2024/01/12 04:40:17;;;;;;;4.15;3.85;;;0.90;99.90;;;0.67;100.00;102385.69;6097844;23;20172;-65
2024/01/12 04:42:45;;;;;;;1.38;1.23;;;0.80;99.90;;;0.72;100.00;102383.56;6096917;23;20166;-67
2024/01/12 04:45:15;;;;;;;2.95;2.17;;;0.70;99.90;;;0.75;100.00;102389.53;6098740;23;20605;-66
2024/01/12 04:47:43;;;;;;;5.22;4.72;;;0.80;99.90;;;0.80;100.00;102378.56;6098355;23;20195;-65
2024/01/12 04:50:12;;;;;;;3.88;3.53;;;0.80;99.90;;;0.81;100.00;102393.63;6097900;23;20242;-66
2024/01/12 04:52:41;;;;;;;3.17;2.20;;;0.80;99.90;;;0.68;100.00;102387.38;6097931;23;20176;-65
2024/01/12 04:55:09;;;;;;;3.50;1.25;;;0.70;99.90;;;0.68;100.00;102382.03;6097989;23;20238;-66
2024/01/12 04:57:40;;;;;;;2.97;2.47;;;0.70;99.90;;;0.75;100.00;102388.69;6098725;23;20163;-66
2024/01/12 05:00:09;;;;;;;7.82;2.75;;;0.70;99.90;;;0.74;100.00;102393.16;6098730;23;20167;-66
2024/01/12 05:02:40;;;;;;;2.22;1.17;;;0.70;99.90;;;0.88;100.00;102390.41;6099181;23;20152;-66
2024/01/12 05:05:09;;;;;;;2.45;2.17;;;0.80;99.90;;;0.84;100.00;102398.72;6098786;23;20239;-67
2024/01/12 05:07:38;;;;;;;1.20;1.10;;;0.80;99.90;;;0.96;100.00;102413.91;6098046;23;20176;-67
2024/01/12 05:10:08;;;;;;;6.07;5.60;;;0.90;99.90;;;1.05;100.00;102413.28;6098587;23;20175;-67
2024/01/12 05:12:37;;;;;;;2.85;2.25;;;1.00;99.90;;;0.86;100.00;102396.81;6097692;23;20187;-66
2024/01/12 05:15:08;;;;;;;2.80;2.42;;;0.90;99.90;;;0.89;100.00;102407.28;6097568;23;20658;-66
2024/01/12 05:18:04;;;;;;;2.08;1.92;;;0.90;99.90;;;1.02;100.00;102401.94;6120842;23;20171;-66
2024/01/12 05:20:33;;;;;;;2.75;2.22;;;1.00;99.90;;;0.91;100.00;102405.38;6098084;23;20585;-66
2024/01/12 05:23:03;;;;;;;2.55;2.45;;;0.90;99.90;;;0.67;100.00;102407.00;6120879;23;20239;-66
2024/01/12 05:25:35;;;;;;;5.25;1.90;;;0.80;99.90;;;0.65;100.00;102408.91;6097719;23;20230;-68
2024/01/12 05:28:04;;;;;;;3.30;2.22;;;0.70;99.90;;;0.64;100.00;102407.19;6102413;23;20162;-67
2024/01/12 05:30:34;;;;;;;2.78;2.25;;;0.70;99.90;;;0.72;100.00;102404.91;6111680;23;20345;-69
2024/01/12 05:33:03;;;;;;;2.08;1.58;;;0.70;99.90;;;0.51;100.00;102404.50;6099017;23;20175;-68
2024/01/12 05:35:31;;;;;;;3.80;3.50;;;0.60;99.90;;;0.79;100.00;102395.50;6098360;23;20579;-66
2024/01/12 05:38:00;;;;;;;2.40;1.85;;;0.70;99.90;;;0.87;100.00;102394.03;6098079;23;20172;-66
2024/01/12 05:40:29;;;;;;;4.40;3.22;;;0.80;99.90;;;0.89;100.00;102396.59;6096267;23;20235;-66
2024/01/12 05:42:57;;;;;;;3.28;2.15;;;0.80;99.90;;;0.88;100.00;102389.56;6097543;23;20152;-66
2024/01/12 05:45:26;;;;;;;6.85;4.78;;;0.90;99.90;;;1.00;100.00;102394.09;6097230;23;20333;-66
2024/01/12 05:47:56;;;;;;;4.82;2.20;;;0.90;99.90;;;0.90;100.00;102398.31;6097807;23;20156;-66
2024/01/12 05:50:25;;;;;;;4.40;4.07;;;0.90;99.90;;;0.88;100.00;102402.88;6097448;23;20617;-66
2024/01/12 05:52:53;;;;;;;5.35;3.75;;;0.90;99.90;;;0.72;100.00;102403.09;6097403;23;20493;-66
2024/01/12 05:55:22;;;;;;;4.38;3.90;;;0.80;99.90;;;0.82;100.00;102403.31;6097157;23;20507;-67
2024/01/12 05:57:51;;;;;;;4.38;3.97;;;0.80;99.90;;;0.87;100.00;102414.53;6096920;23;20175;-66
2024/01/12 06:00:19;;;;;;;5.50;3.17;;;0.80;99.90;;;0.90;100.00;102413.47;6097032;23;20163;-67
2024/01/12 06:02:48;;;;;;;2.15;1.35;;;0.90;99.90;;;0.77;100.00;102403.63;6098437;23;20222;-68
2024/01/12 06:05:18;;;;;;;4.32;2.53;;;0.80;99.90;;;0.56;100.00;102398.84;6097266;23;20152;-67
2024/01/12 06:07:47;;;;;;;5.20;4.28;;;0.60;99.90;;;0.62;100.00;102401.13;6097050;23;20155;-67
2024/01/12 06:10:16;;;;;;;2.17;1.05;;;0.60;99.90;;;0.50;100.00;102394.78;6097230;23;20167;-67
2024/01/12 06:12:45;;;;;;;1.83;1.73;;;0.60;99.90;;;0.39;100.00;102403.47;6097471;23;20182;-67
2024/01/12 06:15:14;;;;;;;6.70;6.05;;;0.50;99.90;;;0.46;100.00;102411.06;6097558;23;20564;-66
2024/01/12 06:17:43;;;;;;;5.95;4.32;;;0.50;99.90;;;0.43;100.00;102415.66;6097362;23;20163;-68
2024/01/12 06:20:12;;;;;;;11.52;5.43;;;0.50;99.90;;;0.40;100.00;102418.50;6096559;23;20155;-67
2024/01/12 06:22:43;;;;;;;3.45;3.03;;;0.40;99.90;;;0.47;100.00;102415.44;6096860;23;20167;-67
2024/01/12 06:25:12;;;;;;;2.55;2.35;;;0.50;99.90;;;0.59;100.00;102419.97;6096975;23;20242;-66
2024/01/12 06:27:42;;;;;;;6.35;4.03;;;0.60;99.90;;;0.52;100.00;102413.34;6095627;23;20215;-67
2024/01/12 06:30:12;;;;;;;4.45;3.20;;;0.50;99.90;;;0.72;100.00;102424.41;6096680;23;20159;-66
2024/01/12 06:32:41;;;;;;;5.25;4.95;;;0.60;99.90;;;0.80;100.00;102434.53;6095223;23;20280;-67
2024/01/12 06:35:12;;;;;;;2.75;2.35;;;0.70;99.90;;;0.73;100.00;102430.56;6096810;23;20249;-67
2024/01/12 06:37:42;;;;;;;2.50;2.35;;;0.70;99.90;;;0.48;100.00;102422.50;6097191;23;20597;-68
2024/01/12 06:40:12;;;;;;;3.92;3.72;;;0.60;99.90;;;0.56;100.00;102415.69;6119300;23;20183;-67
2024/01/12 06:42:41;;;;;;;1.98;1.35;;;0.60;99.90;;;0.48;100.00;102422.50;6096683;23;20263;-66
2024/01/12 06:45:12;;;;;;;2.75;2.25;;;0.50;99.90;;;0.63;100.00;102430.31;6096994;23;20243;-67
2024/01/12 06:47:41;;;;;;;6.15;4.10;;;0.60;99.90;;;0.50;100.00;102426.75;6096753;23;20191;-67
2024/01/12 06:50:10;;;;;;;4.78;2.47;;;0.50;99.90;;;0.65;100.00;102424.88;6097371;23;20171;-66
2024/01/12 06:52:39;;;;;;;7.45;5.22;;;0.60;99.90;;;0.64;100.00;102423.19;6097741;23;20690;-66
2024/01/12 06:55:10;;;;;;;2.75;2.55;;;0.60;99.90;;;0.55;100.00;102418.47;6096594;23;20168;-65
2024/01/12 06:57:38;;;;;;;2.78;2.58;;;0.60;99.90;;;0.55;100.00;102413.97;6097582;23;20175;-67
2024/01/12 07:00:08;;;;;;;4.82;4.00;;;0.60;99.90;;;0.55;100.00;102413.97;6097177;23;20156;-67
2024/01/12 07:02:37;;;;;;;6.07;2.28;;;0.50;99.90;;;0.62;100.00;102407.31;6096425;23;20160;-66
2024/01/12 07:05:07;;;;;;;3.38;2.45;;;0.60;99.90;;;0.42;100.00;102413.09;6096591;23;20155;-66
2024/01/12 07:07:35;;;;;;;4.07;3.78;;;0.50;99.90;;;0.59;100.00;102401.31;6096776;23;20608;-66
2024/01/12 07:10:05;;;;;;;2.35;1.27;;;0.50;99.90;;;0.63;100.00;102401.00;6096493;23;20155;-65
2024/01/12 07:12:35;;;;;;;1.65;1.55;;;0.60;99.90;;;0.42;100.00;102399.78;6097215;23;20234;-67
2024/01/12 07:15:04;;;;;;;2.05;1.85;;;0.40;99.90;;;0.59;100.00;102398.66;6096500;23;20151;-66
2024/01/12 07:17:33;;;;;;;2.05;1.48;;;0.50;99.90;;;0.52;100.00;102387.56;6097373;23;20589;-66
2024/01/12 07:20:02;;;;;;;2.85;2.53;;;0.50;99.90;;;0.52;100.00;102386.69;6096448;23;20261;-67
2024/01/12 07:22:31;;;;;;;1.65;1.55;;;0.50;99.90;;;0.34;100.00;102394.94;6096906;23;20160;-67
2024/01/12 07:25:00;;;;;;;3.97;3.67;;;0.40;99.90;;;0.50;100.00;102394.78;6097199;23;20156;-67
2024/01/12 07:27:28;;;;;;;5.03;4.68;;;0.40;99.90;;;0.60;100.00;102395.03;6096733;23;20222;-68
2024/01/12 07:29:59;;;;;;;8.85;5.10;;;0.50;99.90;;;0.50;100.00;102372.63;6097579;23;20508;-67
2024/01/12 07:32:28;;;;;;;2.08;1.48;;;0.50;99.90;;;0.56;100.00;102366.88;6096769;23;20155;-68
2024/01/12 07:34:56;;;;;;;4.10;2.88;;;0.60;99.90;;;0.42;100.00;102379.31;6097473;23;20167;-66
2024/01/12 07:37:25;;;;;;;1.60;1.50;;;0.50;99.90;;;0.34;100.00;102378.09;6096106;23;20187;-66
2024/01/12 07:39:54;;;;;;;3.25;3.05;;;0.40;99.90;;;0.03;100.00;102379.25;6095488;23;20179;-67
2024/01/12 07:42:23;;;;;;;2.60;2.45;;;0.20;99.90;;;0.05;100.00;102374.66;6096742;23;20167;-67
2024/01/12 07:44:52;;;;;;;3.83;3.63;;;0.10;99.90;;;-0.06;100.00;102377.16;6096657;23;20158;-64
2024/01/12 07:47:22;;;;;;;1.48;1.23;;;0.00;99.90;;;-0.13;100.00;102378.50;6094956;23;20203;-66
2024/01/12 07:49:51;;;;;;;2.88;1.75;;;0.00;99.90;;;0.02;100.00;102380.19;6096706;23;20156;-66
2024/01/12 07:52:19;;;;;;;4.25;1.95;;;0.00;99.90;;;0.15;100.00;102366.94;6102893;23;20175;-67
2024/01/12 07:54:51;;;;;;;4.15;3.95;;;0.10;99.90;;;0.28;100.00;102365.19;6123918;23;20688;-66
2024/01/12 07:57:20;;;;;;;2.58;2.47;;;0.20;99.90;;;0.19;100.00;102360.47;6099992;23;20528;-66
2024/01/12 07:59:48;;;;;;;4.82;2.40;;;0.20;99.90;;;0.12;100.00;102351.16;6099202;23;20187;-66
2024/01/12 08:02:17;;;;;;;2.95;2.13;;;0.10;99.90;;;0.12;100.00;102338.72;6097605;23;20148;-66
2024/01/12 08:04:47;;;;;;;10.65;1.70;;;0.10;99.90;;;0.17;100.00;102349.91;6096928;23;20171;-67
2024/01/12 08:07:16;;;;;;;4.35;2.35;;;0.10;99.90;;;0.18;100.00;102340.97;6096385;23;20183;-68
2024/01/12 08:09:45;;;;;;;4.65;2.95;;;0.20;99.90;;;0.31;100.00;102344.53;6097158;23;20600;-68
2024/01/12 08:12:14;;;;;;;8.43;2.28;;;0.20;99.90;;;0.27;100.00;102336.84;6097081;23;20178;-64
2024/01/12 08:14:43;;;;;;;3.67;1.60;;;0.20;99.90;;;0.32;100.00;102338.25;6097476;23;20182;-65
2024/01/12 08:17:11;;;;;;;6.72;3.30;;;0.20;99.90;;;0.36;100.00;102345.09;6098101;23;20674;-65
2024/01/12 08:19:40;;;;;;;1.15;1.05;;;0.30;99.90;;;0.53;100.00;102340.47;6098419;23;20167;-65
2024/01/12 08:22:10;;;;;;;2.65;2.15;;;0.40;99.90;;;0.55;100.00;102334.06;6098348;23;20159;-65
2024/01/12 08:24:39;;;;;;;5.15;3.50;;;0.50;99.90;;;0.54;100.00;102342.16;6097918;23;20392;-65
2024/01/12 08:27:08;;;;;;;3.42;3.15;;;0.50;99.90;;;0.64;100.00;102332.59;6097874;23;20191;-64
2024/01/12 08:29:37;;;;;;;4.43;2.55;;;0.60;99.90;;;0.67;100.00;102348.38;6098190;23;20155;-66
2024/01/12 08:32:06;;;;;;;3.78;2.35;;;0.60;99.90;;;0.60;100.00;102352.41;6098259;23;20195;-66
2024/01/12 08:34:34;;;;;;;3.35;1.70;;;0.60;99.90;;;0.62;100.00;102348.69;6098040;23;20175;-64
2024/01/12 08:37:03;;;;;;;1.08;0.98;;;0.60;99.90;;;0.78;100.00;102351.16;6098501;23;20187;-67
2024/01/12 08:39:34;;;;;;;1.80;1.67;;;0.60;99.90;;;0.59;100.00;102350.69;6097810;23;20250;-67
2024/01/12 08:42:03;;;;;;;12.13;5.82;;;0.60;99.90;;;0.66;100.00;102347.53;6098107;23;20156;-67
2024/01/12 08:44:32;;;;;;;3.78;2.75;;;0.60;99.90;;;0.67;100.00;102353.72;6098009;23;20187;-66
2024/01/12 08:47:01;;;;;;;3.63;2.78;;;0.60;99.90;;;0.70;100.00;102353.50;6098152;23;20183;-66
2024/01/12 08:49:30;;;;;;;0.80;0.60;;;0.60;99.90;;;0.93;100.00;102355.47;6098472;23;20211;-67
2024/01/12 08:51:58;;;;;;;1.73;1.63;;;0.70;99.90;;;0.73;100.00;102353.28;6098236;23;20216;-66
2024/01/12 08:54:27;;;;;;;4.15;2.97;;;0.60;99.90;;;0.82;100.00;102352.69;6098902;23;20179;-67
2024/01/12 08:56:57;;;;;;;1.13;1.00;;;0.70;99.90;;;0.97;100.00;102343.63;6098415;23;20183;-66
2024/01/12 08:59:27;;;;;;;3.35;2.53;;;0.80;99.90;;;0.90;100.00;102345.00;6097955;23;20151;-66
2024/01/12 09:01:57;;;;;;;4.50;3.90;;;0.80;99.90;;;1.11;100.00;102332.88;6097808;23;20163;-67
2024/01/12 09:04:28;;;;;;;2.50;2.28;;;0.90;99.90;;;1.12;100.00;102349.72;6097824;23;20504;-66
2024/01/12 09:06:57;;;;;;;5.43;4.68;;;1.00;99.90;;;0.80;100.00;102350.13;6098557;23;20195;-66
2024/01/12 09:09:26;;;;;;;4.93;2.05;;;0.80;99.90;;;1.11;100.00;102338.22;6097734;23;20199;-66
2024/01/12 09:11:55;;;;;;;1.80;1.70;;;0.90;99.90;;;1.20;100.00;102345.59;6120888;23;20191;-66
2024/01/12 09:14:25;;;;;;;2.60;2.45;;;1.00;99.90;;;1.25;100.00;102351.44;6097854;23;20180;-65
2024/01/12 09:16:53;;;;;;;7.82;3.72;;;1.10;99.90;;;1.14;100.00;102356.66;6098036;23;20187;-66
2024/01/12 09:19:22;;;;;;;2.35;2.25;;;1.00;99.90;;;1.22;100.00;102351.66;6097804;23;20162;-65
2024/01/12 09:21:51;;;;;;;3.40;2.88;;;1.10;99.90;;;1.19;100.00;102362.53;6097567;23;20234;-67
2024/01/12 09:24:20;;;;;;;3.95;3.65;;;1.10;99.90;;;1.15;100.00;102344.19;6097002;23;20175;-67
2024/01/12 09:26:48;;;;;;;6.55;2.65;;;1.10;99.90;;;1.20;100.00;102344.72;6096985;23;20184;-67
2024/01/12 09:29:17;;;;;;;1.67;1.58;;;1.10;99.90;;;1.26;100.00;102347.78;6095630;23;20164;-67
2024/01/12 09:31:47;;;;;;;3.45;2.47;;;1.20;99.90;;;1.29;100.00;102341.41;6097706;23;20166;-67
2024/01/12 09:34:16;;;;;;;2.33;1.77;;;1.20;99.90;;;1.31;100.00;102342.13;6097065;23;20172;-67
2024/01/12 09:36:45;;;;;;;4.47;3.28;;;1.20;99.90;;;1.47;100.00;102344.59;6096968;23;20180;-66
2024/01/12 09:39:17;;;;;;;3.55;2.22;;;1.30;99.90;;;1.42;100.00;102344.06;6095670;23;20180;-66
2024/01/12 09:41:49;;;;;;;2.25;1.77;;;1.40;99.90;;;1.31;100.00;102343.00;6096920;23;20152;-67
2024/01/12 09:44:21;;;;;;;2.17;1.98;;;1.30;99.90;;;1.24;100.00;102330.22;6096835;23;20152;-65
2024/01/12 09:46:57;;;;;;;1.42;1.23;;;1.20;99.90;;;1.22;100.00;102332.13;6097134;23;20183;-66
2024/01/12 09:49:29;;;;;;;2.80;1.23;;;1.20;99.90;;;1.16;100.00;102325.41;6097865;23;20600;-66
2024/01/12 09:51:59;;;;;;;1.92;1.83;;;1.10;99.90;;;1.23;100.00;102329.34;6097053;23;20155;-65
2024/01/12 09:54:27;;;;;;;1.95;1.85;;;1.10;99.90;;;1.28;100.00;102332.56;6097203;23;20258;-65
2024/01/12 09:56:57;;;;;;;1.45;1.17;;;1.20;99.90;;;1.33;100.00;102320.72;6097101;23;20660;-66
2024/01/12 09:59:27;;;;;;;1.85;1.75;;;1.30;99.90;;;1.24;100.00;102312.41;6096935;23;20193;-66
2024/01/12 10:01:59;;;;;;;1.73;1.63;;;1.20;27.90;;;1.10;100.00;102307.19;6097211;23;20657;-66
2024/01/12 10:04:28;;;;;;;2.22;1.27;;;1.10;28.80;;;1.22;100.00;102316.13;6097124;23;20186;-65
2024/01/12 10:06:56;;;;;;;0.80;0.55;;;1.10;99.90;;;1.21;100.00;102311.78;6096765;23;20187;-67
2024/01/12 10:09:27;;;;;;;1.42;1.30;;;1.10;99.90;;;1.31;100.00;102307.47;6097252;23;20171;-67
2024/01/12 10:11:56;;;;;;;7.43;2.20;;;1.20;99.90;;;1.35;100.00;102305.47;6097222;23;20210;-67
2024/01/12 10:14:25;;;;;;;0.98;0.88;;;1.20;99.90;;;1.24;100.00;102296.41;6108859;23;20175;-67
2024/01/12 10:16:55;;;;;;;2.78;2.58;;;1.20;94.40;;;1.34;100.00;102314.41;6100273;23;20198;-67
2024/01/12 10:19:26;;;;;;;5.50;1.98;;;1.20;99.90;;;1.41;100.00;102299.66;6102167;23;20189;-65
2024/01/12 10:21:55;;;;;;;1.42;1.25;;;1.30;99.90;;;1.27;100.00;102305.97;6096999;23;20156;-67
2024/01/12 10:24:24;;;;;;;4.60;2.00;;;1.30;46.80;;;1.22;100.00;102308.97;6096554;23;20182;-68
2024/01/12 10:26:54;;;;;;;2.70;2.50;;;1.30;53.00;;;1.11;100.00;102310.69;6095913;23;20183;-67